createdAt,value
2024-05-09T00:01:33.486Z,30.75
2024-05-09T00:04:03.756Z,28.88
2024-05-09T00:06:33.864Z,28.85
2024-05-09T00:09:06.680Z,27.45
2024-05-09T00:11:36.903Z,27.75
2024-05-09T00:14:07.150Z,29.25
2024-05-09T00:16:37.172Z,28.77
2024-05-09T00:19:07.359Z,26.10
2024-05-09T00:21:37.533Z,31.67
2024-05-09T00:24:10.480Z,29.98
2024-05-09T00:26:40.820Z,27.30
2024-05-09T00:29:11.046Z,29.35
2024-05-09T00:31:41.198Z,30.33
2024-05-09T00:34:11.349Z,27.08
2024-05-09T00:36:41.440Z,28.48
2024-05-09T00:39:14.262Z,29.27
2024-05-09T00:41:44.348Z,30.95
2024-05-09T00:44:14.827Z,28.40
2024-05-09T00:46:45.489Z,30.83
2024-05-09T00:49:16.187Z,28.15
2024-05-09T00:51:46.510Z,26.73
2024-05-09T00:54:20.083Z,26.60
2024-05-09T00:56:52.537Z,31.40
2024-05-09T00:59:23.130Z,30.98
2024-05-09T01:01:54.029Z,27.02
2024-05-09T01:04:24.377Z,34.35
2024-05-09T01:06:54.514Z,30.67
2024-05-09T01:09:27.290Z,32.53
2024-05-09T01:11:57.391Z,30.38
2024-05-09T01:14:27.561Z,28.77
2024-05-09T01:16:57.839Z,30.88
2024-05-09T01:19:31.527Z,32.13
2024-05-09T01:22:02.119Z,31.13
2024-05-09T01:24:34.824Z,28.73
2024-05-09T01:27:05.087Z,29.75
2024-05-09T01:29:35.230Z,28.70
2024-05-09T01:32:05.445Z,29.67
2024-05-09T01:34:35.539Z,30.88
2024-05-09T01:37:05.864Z,32.47
2024-05-09T01:39:40.380Z,27.75
2024-05-09T01:42:10.518Z,27.80
2024-05-09T01:44:40.583Z,31.20
2024-05-09T01:47:10.836Z,30.90
2024-05-09T01:49:41.441Z,33.17
2024-05-09T01:52:11.739Z,29.25
2024-05-09T01:54:44.499Z,30.77
2024-05-09T01:57:14.511Z,31.65
2024-05-09T01:59:44.804Z,34.28
2024-05-09T02:02:15.589Z,33.22
2024-05-09T02:04:50.269Z,30.10
2024-05-09T02:07:20.737Z,30.05
2024-05-09T02:09:54.541Z,29.20
2024-05-09T02:12:24.758Z,31.13
2024-05-09T02:14:54.962Z,29.83
2024-05-09T02:17:25.145Z,30.92
2024-05-09T02:19:55.542Z,35.72
2024-05-09T02:22:26.138Z,31.00
2024-05-09T02:24:58.869Z,30.73
2024-05-09T02:27:28.903Z,31.70
2024-05-09T02:29:59.014Z,33.78
2024-05-09T02:32:29.662Z,33.30
2024-05-09T02:34:59.914Z,32.65
2024-05-09T02:37:27.811Z,35.80
2024-05-09T02:40:00.548Z,33.10
2024-05-09T02:42:30.654Z,28.45
2024-05-09T02:44:58.044Z,33.95
2024-05-09T02:47:28.302Z,32.72
2024-05-09T02:49:55.907Z,30.45
2024-05-09T02:52:26.041Z,30.92
2024-05-09T02:54:53.563Z,32.25
2024-05-09T02:57:26.287Z,28.85
2024-05-09T02:59:53.627Z,34.58
2024-05-09T03:02:23.836Z,30.23
2024-05-09T03:04:51.357Z,32.00
2024-05-09T03:07:21.549Z,32.10
2024-05-09T03:09:48.887Z,30.75
2024-05-09T03:12:18.984Z,31.33
2024-05-09T03:14:50.311Z,31.20
2024-05-09T03:17:20.741Z,30.45
2024-05-09T03:19:48.148Z,32.17
2024-05-09T03:22:18.287Z,31.02
2024-05-09T03:24:45.655Z,35.90
2024-05-09T03:27:15.713Z,33.65
2024-05-09T03:29:43.063Z,33.35
2024-05-09T03:32:15.951Z,30.15
2024-05-09T03:34:43.404Z,32.45
2024-05-09T03:37:13.633Z,31.45
2024-05-09T03:39:43.656Z,32.25
2024-05-09T03:42:13.631Z,34.30
2024-05-09T03:44:41.127Z,31.58
2024-05-09T03:47:11.183Z,32.63
2024-05-09T03:49:41.433Z,37.13
2024-05-09T03:52:11.687Z,35.63
2024-05-09T03:54:45.574Z,35.35
2024-05-09T03:57:15.615Z,30.13
2024-05-09T03:59:42.965Z,34.42
2024-05-09T04:02:13.404Z,32.30
2024-05-09T04:04:45.198Z,35.58
2024-05-09T04:07:16.824Z,38.22
2024-05-09T04:09:44.179Z,30.98
2024-05-09T04:12:14.390Z,37.30
2024-05-09T04:14:43.134Z,32.85
2024-05-09T04:17:13.170Z,34.13
2024-05-09T04:19:40.895Z,34.20
2024-05-09T04:22:13.694Z,36.95
2024-05-09T04:24:41.135Z,35.42
2024-05-09T04:27:11.147Z,34.83
2024-05-09T04:29:40.139Z,34.28
2024-05-09T04:32:11.138Z,36.80
2024-05-09T04:34:38.612Z,33.97
2024-05-09T04:37:08.858Z,35.33
2024-05-09T04:39:38.918Z,36.30
2024-05-09T04:42:09.103Z,35.05
2024-05-09T04:44:36.554Z,35.55
2024-05-09T04:47:06.835Z,34.70
2024-05-09T04:49:34.407Z,36.55
2024-05-09T04:52:04.471Z,34.63
2024-05-09T04:54:36.279Z,33.10
2024-05-09T04:57:09.570Z,34.20
2024-05-09T04:59:37.088Z,36.30
2024-05-09T05:02:07.504Z,31.30
2024-05-09T05:04:35.171Z,41.45
2024-05-09T05:07:05.392Z,33.67
2024-05-09T05:09:32.877Z,34.88
2024-05-09T05:12:05.819Z,30.13
2024-05-09T05:14:36.476Z,34.28
2024-05-09T05:17:07.819Z,38.10
2024-05-09T05:19:35.799Z,32.38
2024-05-09T05:22:05.935Z,29.25
2024-05-09T05:24:33.305Z,32.63
2024-05-09T05:27:03.263Z,35.40
2024-05-09T05:29:30.880Z,33.05
2024-05-09T05:32:03.729Z,33.03
2024-05-09T05:34:31.763Z,35.13
2024-05-09T05:37:01.782Z,37.60
2024-05-09T05:39:29.149Z,33.45
2024-05-09T05:41:59.153Z,29.65
2024-05-09T05:44:26.570Z,34.95
2024-05-09T05:46:56.558Z,28.95
2024-05-09T05:49:26.861Z,31.48
2024-05-09T05:51:56.977Z,29.83
2024-05-09T05:54:24.356Z,31.65
2024-05-09T05:56:54.563Z,31.13
2024-05-09T05:59:24.100Z,31.98
2024-05-09T06:01:54.191Z,29.80
2024-05-09T06:04:25.967Z,33.65
2024-05-09T06:06:55.987Z,31.95
2024-05-09T06:09:23.397Z,37.22
2024-05-09T06:11:53.563Z,37.95
2024-05-09T06:14:21.304Z,39.00
2024-05-09T06:16:52.164Z,36.97
2024-05-09T06:19:20.723Z,38.33
2024-05-09T06:21:53.623Z,40.15
2024-05-09T06:24:21.031Z,34.28
2024-05-09T06:26:51.187Z,33.47
2024-05-09T06:29:18.552Z,32.70
2024-05-09T06:31:48.906Z,32.67
2024-05-09T06:34:19.146Z,31.70
2024-05-09T06:36:49.277Z,34.80
2024-05-09T06:39:19.346Z,30.52
2024-05-09T06:41:49.336Z,30.08
2024-05-09T06:44:16.775Z,30.65
2024-05-09T06:46:47.020Z,28.65
2024-05-09T06:49:14.888Z,30.20
2024-05-09T06:51:45.065Z,30.52
2024-05-09T06:54:12.450Z,27.83
2024-05-09T06:56:45.316Z,29.40
2024-05-09T06:59:12.834Z,29.73
2024-05-09T07:01:42.948Z,30.05
2024-05-09T07:04:13.174Z,25.08
2024-05-09T07:06:41.112Z,25.98
2024-05-09T07:09:11.117Z,20.08
2024-05-09T07:11:38.735Z,21.40
2024-05-09T07:14:11.959Z,20.10
2024-05-09T07:16:39.371Z,17.85
2024-05-09T07:19:10.110Z,18.55
2024-05-09T07:21:37.596Z,20.63
2024-05-09T07:24:08.447Z,21.70
2024-05-09T07:26:36.088Z,27.73
2024-05-09T07:29:06.210Z,26.65
2024-05-09T07:31:36.250Z,18.85
2024-05-09T07:34:06.518Z,16.83
2024-05-09T07:36:33.983Z,17.70
2024-05-09T07:39:05.613Z,18.83
2024-05-09T07:41:33.138Z,15.65
2024-05-09T07:44:03.342Z,17.67
2024-05-09T07:47:37.070Z,15.73
2024-05-09T07:53:21.665Z,13.45
2024-05-09T07:54:44.288Z,12.43
2024-05-09T07:57:12.038Z,15.73
2024-05-09T07:59:42.369Z,12.25
2024-05-09T08:02:09.926Z,9.00
2024-05-09T08:04:42.768Z,10.35
2024-05-09T08:07:10.530Z,10.93
2024-05-09T08:09:40.645Z,9.00
2024-05-09T08:12:09.531Z,7.95
2024-05-09T08:14:40.712Z,9.00
2024-05-09T08:17:08.472Z,5.60
2024-05-09T08:19:45.028Z,10.15
2024-05-09T08:22:12.717Z,5.72
2024-05-09T08:24:42.836Z,8.27
2024-05-09T08:27:10.310Z,5.45
2024-05-09T08:29:40.322Z,5.03
2024-05-09T08:32:12.673Z,6.15
2024-05-09T08:34:45.577Z,6.15
2024-05-09T08:37:19.697Z,5.20
2024-05-09T08:39:52.682Z,4.88
2024-05-09T08:42:23.415Z,4.38
2024-05-09T08:44:53.841Z,5.32
2024-05-09T08:47:21.303Z,4.68
2024-05-09T08:49:58.677Z,4.38
2024-05-09T08:52:26.585Z,4.15
2024-05-09T08:54:57.169Z,3.55
2024-05-09T08:57:26.445Z,5.30
2024-05-09T08:59:58.625Z,3.88
2024-05-09T09:02:27.676Z,4.60
2024-05-09T09:05:10.775Z,2.60
2024-05-09T09:07:39.472Z,4.25
2024-05-09T09:10:12.892Z,7.95
2024-05-09T09:15:12.437Z,3.47
2024-05-09T09:17:40.011Z,4.82
2024-05-09T09:20:16.559Z,2.55
2024-05-09T09:22:46.738Z,6.28
2024-05-09T09:25:16.932Z,5.82
2024-05-09T09:27:44.673Z,3.70
2024-05-09T09:30:27.771Z,4.40
2024-05-09T09:33:02.297Z,3.38
2024-05-09T09:35:35.957Z,5.10
2024-05-09T09:38:04.775Z,4.53
2024-05-09T09:40:40.874Z,4.18
2024-05-09T09:43:18.790Z,4.53
2024-05-09T09:45:53.207Z,4.13
2024-05-09T09:48:22.834Z,4.57
2024-05-09T09:50:57.246Z,4.05
2024-05-09T09:53:25.155Z,3.20
2024-05-09T09:55:56.096Z,2.65
2024-05-09T09:58:24.924Z,7.15
2024-05-09T10:00:55.342Z,3.00
2024-05-09T10:03:23.076Z,5.05
2024-05-09T10:05:57.140Z,2.97
2024-05-09T10:08:24.713Z,3.42
2024-05-09T10:10:55.043Z,2.92
2024-05-09T10:13:33.576Z,3.20
2024-05-09T10:16:10.978Z,3.78
2024-05-09T10:18:39.863Z,8.35
2024-05-09T10:21:23.264Z,2.95
2024-05-09T10:23:58.206Z,3.20
2024-05-09T10:26:35.789Z,3.58
2024-05-09T10:29:12.359Z,3.03
2024-05-09T10:31:44.779Z,2.10
2024-05-09T10:34:17.933Z,6.63
2024-05-09T10:36:55.670Z,3.17
2024-05-09T10:39:25.026Z,2.35
2024-05-09T10:41:55.087Z,2.90
2024-05-09T10:44:22.546Z,4.35
2024-05-09T10:46:54.888Z,5.18
2024-05-09T10:49:22.947Z,2.70
2024-05-09T10:51:56.016Z,3.30
2024-05-09T10:54:23.426Z,3.20
2024-05-09T10:56:59.298Z,3.33
2024-05-09T10:59:33.186Z,5.72
2024-05-09T11:02:06.887Z,3.70
2024-05-09T11:07:16.220Z,2.83
2024-05-09T11:09:47.041Z,4.07
2024-05-09T11:12:14.612Z,4.68
2024-05-09T11:14:55.974Z,4.68
2024-05-09T11:17:24.112Z,5.13
2024-05-09T11:19:56.895Z,3.20
2024-05-09T11:22:25.319Z,3.63
2024-05-09T11:24:55.809Z,4.60
2024-05-09T11:27:24.084Z,3.97
2024-05-09T11:29:54.147Z,3.75
2024-05-09T11:32:29.370Z,3.22
2024-05-09T11:35:02.685Z,3.55
2024-05-09T11:37:32.237Z,5.43
2024-05-09T11:40:05.405Z,3.30
2024-05-09T11:42:34.308Z,3.60
2024-05-09T11:45:04.398Z,4.30
2024-05-09T11:47:32.001Z,12.70
2024-05-09T11:50:07.691Z,5.53
2024-05-09T11:52:35.382Z,4.80
2024-05-09T11:55:05.618Z,4.43
2024-05-09T11:57:33.390Z,6.22
2024-05-09T12:00:05.602Z,6.30
2024-05-09T12:02:34.736Z,3.97
2024-05-09T12:05:08.244Z,5.63
2024-05-09T12:07:36.381Z,5.80
2024-05-09T12:10:11.888Z,4.95
2024-05-09T12:12:43.947Z,3.85
2024-05-09T12:15:20.696Z,5.18
2024-05-09T12:17:52.146Z,3.38
2024-05-09T12:20:32.831Z,5.50
2024-05-09T12:23:04.755Z,3.33
2024-05-09T12:25:34.814Z,4.35
2024-05-09T12:28:02.502Z,5.72
2024-05-09T12:30:37.566Z,6.13
2024-05-09T12:33:09.011Z,3.97
2024-05-09T12:35:44.354Z,3.35
2024-05-09T12:38:14.411Z,4.15
2024-05-09T12:40:45.347Z,6.13
2024-05-09T12:43:12.842Z,7.07
2024-05-09T12:45:43.088Z,5.82
2024-05-09T12:48:12.457Z,6.72
2024-05-09T12:50:46.375Z,9.57
2024-05-09T12:53:13.882Z,7.75
2024-05-09T12:55:53.361Z,4.60
2024-05-09T12:58:24.973Z,3.22
2024-05-09T13:00:55.282Z,9.98
2024-05-09T13:03:22.916Z,9.50
2024-05-09T13:05:56.057Z,26.13
2024-05-09T13:08:23.724Z,16.25
2024-05-09T13:10:54.399Z,4.82
2024-05-09T13:13:21.806Z,6.53
2024-05-09T13:15:51.967Z,8.88
2024-05-09T13:18:19.537Z,4.30
2024-05-09T13:20:49.651Z,3.70
2024-05-09T13:23:19.722Z,8.95
2024-05-09T13:25:49.815Z,19.30
2024-05-09T13:28:17.472Z,5.78
2024-05-09T13:30:47.547Z,4.75
2024-05-09T13:33:15.078Z,10.27
2024-05-09T13:35:49.520Z,48.53
2024-05-09T13:38:21.434Z,5.78
2024-05-09T13:40:51.859Z,3.35
2024-05-09T13:43:19.457Z,4.05
2024-05-09T13:45:50.328Z,3.60
2024-05-09T13:48:18.239Z,4.88
2024-05-09T13:50:48.365Z,5.82
2024-05-09T13:53:15.839Z,7.18
2024-05-09T13:55:48.759Z,5.60
2024-05-09T13:58:16.605Z,4.45
2024-05-09T14:00:49.023Z,9.38
2024-05-09T14:03:19.299Z,29.80
2024-05-09T14:05:51.962Z,12.05
2024-05-09T14:08:21.563Z,6.43
2024-05-09T14:11:00.608Z,3.63
2024-05-09T14:13:28.189Z,6.72
2024-05-09T14:15:58.599Z,5.25
2024-05-09T14:18:26.169Z,10.52
2024-05-09T14:20:56.309Z,8.55
2024-05-09T14:23:23.869Z,4.82
2024-05-09T14:25:56.720Z,6.05
2024-05-09T14:28:26.345Z,6.95
2024-05-09T14:30:56.828Z,3.55
2024-05-09T14:33:27.110Z,4.50
2024-05-09T14:35:57.298Z,5.90
2024-05-09T14:38:24.952Z,8.65
2024-05-09T14:40:57.847Z,2.67
2024-05-09T14:43:25.625Z,20.42
2024-05-09T14:45:56.389Z,30.08
2024-05-09T14:48:23.982Z,17.92
2024-05-09T14:50:54.063Z,5.18
2024-05-09T14:53:23.678Z,2.28
2024-05-09T14:55:53.918Z,3.17
2024-05-09T14:58:24.650Z,4.30
2024-05-09T15:00:54.886Z,31.67
2024-05-09T15:03:22.874Z,14.75
2024-05-09T15:05:53.655Z,5.20
2024-05-09T15:08:21.225Z,5.55
2024-05-09T15:10:52.271Z,4.60
2024-05-09T15:13:26.496Z,3.03
2024-05-09T15:15:56.796Z,3.72
2024-05-09T15:18:24.632Z,2.33
2024-05-09T15:20:55.668Z,2.97
2024-05-09T15:23:23.117Z,2.85
2024-05-09T15:25:53.256Z,8.05
2024-05-09T15:28:20.786Z,5.40
2024-05-09T15:30:53.478Z,3.47
2024-05-09T15:33:21.081Z,4.25
2024-05-09T15:35:51.399Z,3.22
2024-05-09T15:38:19.439Z,2.78
2024-05-09T15:40:49.748Z,3.90
2024-05-09T15:43:17.378Z,4.68
2024-05-09T15:45:48.930Z,3.38
2024-05-09T15:48:19.753Z,4.60
2024-05-09T15:50:50.236Z,6.32
2024-05-09T15:53:17.754Z,3.30
2024-05-09T15:55:47.824Z,4.35
2024-05-09T15:58:15.627Z,2.75
2024-05-09T16:00:48.726Z,3.00
2024-05-09T16:03:21.558Z,7.45
2024-05-09T16:05:53.212Z,4.47
2024-05-09T16:08:20.701Z,2.85
2024-05-09T16:10:50.914Z,2.42
2024-05-09T16:13:19.834Z,3.20
2024-05-09T16:15:50.807Z,2.47
2024-05-09T16:18:21.682Z,4.60
2024-05-09T16:20:58.887Z,3.28
2024-05-09T16:23:26.388Z,5.22
2024-05-09T16:25:56.547Z,2.28
2024-05-09T16:28:26.837Z,1.70
2024-05-09T16:30:58.360Z,2.08
2024-05-09T16:33:31.948Z,3.78
2024-05-09T16:36:02.282Z,2.20
2024-05-09T16:38:29.711Z,4.65
2024-05-09T16:40:59.912Z,2.30
2024-05-09T16:43:27.337Z,4.00
2024-05-09T16:45:57.495Z,2.47
2024-05-09T16:48:25.037Z,3.38
2024-05-09T16:50:57.779Z,2.88
2024-05-09T16:53:25.888Z,2.28
2024-05-09T16:55:56.085Z,1.98
2024-05-09T16:58:24.183Z,1.83
2024-05-09T17:00:54.442Z,2.20
2024-05-09T17:03:23.820Z,2.22
2024-05-09T17:05:54.029Z,1.77
2024-05-09T17:08:26.895Z,1.85
2024-05-09T17:10:54.353Z,3.10
2024-05-09T17:13:24.611Z,1.85
2024-05-09T17:15:54.964Z,1.52
2024-05-09T17:18:25.290Z,1.30
2024-05-09T17:20:55.384Z,3.03
2024-05-09T17:23:25.419Z,1.70
2024-05-09T17:25:55.514Z,1.98
2024-05-09T17:28:23.213Z,1.50
2024-05-09T17:30:53.305Z,0.98
2024-05-09T17:33:21.042Z,1.10
2024-05-09T17:35:52.192Z,2.88
2024-05-09T17:38:19.738Z,1.70
2024-05-09T17:40:53.234Z,2.03
2024-05-09T17:43:23.633Z,2.20
2024-05-09T17:45:53.893Z,1.48
2024-05-09T17:48:21.914Z,2.17
2024-05-09T17:50:52.018Z,1.50
2024-05-09T17:53:20.335Z,3.10
2024-05-09T17:55:54.076Z,2.35
2024-05-09T17:58:21.699Z,8.13
2024-05-09T18:00:52.102Z,1.40
2024-05-09T18:03:20.317Z,2.03
2024-05-09T18:05:50.435Z,2.08
2024-05-09T18:08:18.768Z,3.15
2024-05-09T18:10:50.162Z,2.40
2024-05-09T18:13:21.447Z,2.53
2024-05-09T18:15:51.608Z,4.65
2024-05-09T18:18:19.798Z,3.42
2024-05-09T18:20:50.128Z,2.13
2024-05-09T18:23:18.684Z,3.17
2024-05-09T18:25:54.804Z,1.85
2024-05-09T18:28:25.525Z,1.73
2024-05-09T18:30:55.940Z,2.42
2024-05-09T18:33:24.980Z,1.83
2024-05-09T18:35:55.170Z,2.00
2024-05-09T18:38:27.494Z,2.83
2024-05-09T18:40:57.867Z,1.60
2024-05-09T18:43:38.026Z,2.17
2024-05-09T18:46:12.695Z,2.00
2024-05-09T18:48:40.815Z,2.72
2024-05-09T18:51:13.867Z,2.42
2024-05-09T18:53:44.596Z,2.55
2024-05-09T18:56:15.026Z,1.95
2024-05-09T18:58:45.114Z,2.17
2024-05-09T19:01:15.475Z,3.22
2024-05-09T19:03:43.297Z,2.10
2024-05-09T19:06:13.904Z,1.95
2024-05-09T19:08:41.511Z,2.38
2024-05-09T19:11:11.894Z,1.45
2024-05-09T19:13:39.427Z,1.23
2024-05-09T19:16:12.566Z,3.25
2024-05-09T19:18:40.334Z,4.22
2024-05-09T19:21:10.589Z,1.30
2024-05-09T19:23:46.852Z,1.35
2024-05-09T19:26:21.387Z,3.30
2024-05-09T19:28:49.039Z,3.95
2024-05-09T19:31:22.911Z,1.60
2024-05-09T19:33:50.586Z,1.73
2024-05-09T19:36:21.814Z,2.97
2024-05-09T19:38:51.646Z,1.17
2024-05-09T19:41:21.998Z,1.55
2024-05-09T19:43:49.868Z,2.50
2024-05-09T19:46:23.975Z,2.42
2024-05-09T19:48:51.630Z,3.22
2024-05-09T19:51:22.226Z,3.50
2024-05-09T19:53:50.782Z,1.75
2024-05-09T19:56:20.852Z,3.17
2024-05-09T19:58:48.867Z,4.50
2024-05-09T20:01:19.117Z,5.20
2024-05-09T20:03:51.103Z,4.82
2024-05-09T20:06:24.584Z,3.65
2024-05-09T20:08:54.015Z,3.38
2024-05-09T20:11:24.148Z,4.85
2024-05-09T20:13:54.216Z,4.80
2024-05-09T20:16:27.086Z,4.93
2024-05-09T20:18:57.724Z,5.95
2024-05-09T20:21:28.107Z,5.90
2024-05-09T20:23:55.682Z,4.80
2024-05-09T20:26:28.701Z,7.55
2024-05-09T20:28:58.235Z,9.07
2024-05-09T20:31:29.040Z,14.45
2024-05-09T20:34:02.059Z,10.13
2024-05-09T20:36:29.543Z,8.90
2024-05-09T20:38:59.726Z,6.80
2024-05-09T20:41:27.757Z,9.43
2024-05-09T20:44:00.721Z,7.28
2024-05-09T20:46:28.287Z,5.35
2024-05-09T20:49:01.330Z,5.53
2024-05-09T20:51:30.240Z,4.68
2024-05-09T20:54:01.026Z,7.10
2024-05-09T20:56:28.452Z,6.07
2024-05-09T20:58:58.874Z,9.70
2024-05-09T21:01:26.471Z,4.97
2024-05-09T21:03:56.969Z,7.97
2024-05-09T21:06:27.155Z,7.90
2024-05-09T21:08:58.590Z,8.57
2024-05-09T21:11:26.169Z,4.45
2024-05-09T21:13:56.303Z,6.43
2024-05-09T21:16:23.793Z,5.85
2024-05-09T21:18:54.128Z,11.55
2024-05-09T21:21:22.152Z,8.15
2024-05-09T21:23:55.019Z,9.23
2024-05-09T21:26:23.979Z,8.15
2024-05-09T21:28:54.324Z,11.68
2024-05-09T21:31:21.836Z,12.45
2024-05-09T21:33:52.151Z,14.85
2024-05-09T21:36:19.713Z,13.60
2024-05-09T21:38:49.756Z,12.90
2024-05-09T21:41:19.892Z,16.08
2024-05-09T21:43:49.897Z,14.55
2024-05-09T21:46:17.326Z,16.98
2024-05-09T21:48:47.530Z,16.23
2024-05-09T21:51:15.174Z,13.52
2024-05-09T21:53:45.343Z,20.83
2024-05-09T21:56:12.998Z,20.02
2024-05-09T21:58:45.732Z,20.55
2024-05-09T22:01:13.495Z,18.35
2024-05-09T22:03:43.771Z,25.92
2024-05-09T22:06:11.281Z,26.40
2024-05-09T22:08:41.362Z,24.33
2024-05-09T22:11:09.052Z,22.65
2024-05-09T22:13:39.246Z,21.45
2024-05-09T22:16:09.689Z,25.42
2024-05-09T22:18:39.983Z,24.15
2024-05-09T22:21:07.824Z,26.08
2024-05-09T22:23:40.280Z,25.30
2024-05-09T22:26:07.686Z,26.25
2024-05-09T22:28:38.256Z,27.20
2024-05-09T22:31:08.598Z,24.98
2024-05-09T22:33:38.851Z,26.77
2024-05-09T22:36:08.842Z,27.17
2024-05-09T22:38:38.943Z,27.25
2024-05-09T22:41:07.116Z,29.05
2024-05-09T22:43:37.471Z,26.42
2024-05-09T22:46:05.388Z,31.95
2024-05-09T22:48:39.574Z,28.42
2024-05-09T22:51:07.118Z,29.17
2024-05-09T22:53:37.215Z,30.50
2024-05-09T22:56:05.092Z,32.65
2024-05-09T22:58:35.128Z,34.10
2024-05-09T23:01:02.764Z,33.90
2024-05-09T23:03:33.112Z,31.20
2024-05-09T23:06:06.262Z,31.65
2024-05-09T23:08:36.999Z,32.40
2024-05-09T23:11:05.991Z,28.38
2024-05-09T23:13:37.150Z,37.53
2024-05-09T23:16:05.401Z,32.33
2024-05-09T23:18:35.829Z,33.28
2024-05-09T23:21:06.395Z,33.03
2024-05-09T23:23:36.576Z,34.92
2024-05-09T23:26:04.078Z,36.78
2024-05-09T23:28:34.220Z,33.00
2024-05-09T23:31:01.738Z,32.47
2024-05-09T23:33:31.985Z,34.13
2024-05-09T23:35:59.497Z,35.17
2024-05-09T23:38:32.287Z,35.45
2024-05-09T23:40:59.851Z,38.00
2024-05-09T23:43:30.114Z,35.90
2024-05-09T23:45:57.719Z,32.20
2024-05-09T23:48:28.187Z,36.55
2024-05-09T23:50:55.761Z,37.03
2024-05-09T23:53:25.808Z,36.00
2024-05-09T23:55:55.895Z,37.58
2024-05-09T23:58:26.444Z,38.10
